Pine Hills (222, JU1, PE1) Station Data

Red Flag Warning: No
Fire Weather Zone: 258
SDGE Region: Ramona
Lat/Lon: 33.049/-116.637

Observations

Time Wind Speed/Gust Temp(F) RH Fuel Moist Fuel Temp(F) Dewpt(F) Tmax(F) Tmin(F) Accum Precip 10-min Precip SL Press(mb)
2/27 11:40pm 269 10 G 22 43° 96% - - 42° 46.1° 40.1° - - -
2/27 11:20pm 265 8 G 17 43° 96% - - 42° 46.1° 40.1° - - -
2/27 11:10pm 266 4 G 11 43° 96% - - 42° 46.1° 40.1° - - -
2/27 11:00pm 281 3 G 9 43° 95% - - 42° 46.1° 40.1° - - -
2/27 10:50pm 36 2 G 6 43° 95% - - 42° 46.1° 40.1° - - -
2/27 10:40pm 9 2 G 10 43° 95% - - 42° 46.1° 40.1° - - -
2/27 10:30pm 124 5 G 13 43° 94% - - 42° 46.1° 40.1° - - -
2/27 10:20pm 144 4 G 11 43° 95% - - 42° 46.1° 40.1° - - -
2/27 10:10pm 140 4 G 10 43° 95% - - 42° 46.1° 40.1° - - -
2/27 10:00pm 138 6 G 14 43° 95% - - 42° 46.1° 40.1° - - -
2/27 9:50pm 132 4 G 11 43° 95% - - 42° 46.1° 40.1° - - -
2/27 9:40pm 140 5 G 14 43° 95% - - 42° 46.1° 40.1° - - -
2/27 9:30pm 136 4 G 10 43° 95% - - 42° 46.1° 40.1° - - -
2/27 9:20pm 130 6 G 14 43° 95% - - 42° 46.1° 40.1° - - -
2/27 9:10pm 137 4 G 12 43° 95% - - 42° 46.1° 40.1° - - -
2/27 9:00pm 127 4 G 11 43° 94% - - 42° 46.1° 40.1° - - -
2/27 8:50pm 144 4 G 11 43° 94% - - 42° 46.1° 40.1° - - -
2/27 8:40pm 134 7 G 15 43° 95% - - 42° 46.1° 40.1° - - -
2/27 8:30pm 132 6 G 12 43° 95% - - 42° 46.1° 40.1° - - -
2/27 8:20pm 123 6 G 12 43° 96% - - 42° 46.1° 40.1° - - -
2/27 8:10pm 126 6 G 12 43° 96% - - 42° 46.1° 40.1° - - -
2/27 8:00pm 132 8 G 15 43° 96% - - 42° 46.1° 40.1° - - -
2/27 7:50pm 130 8 G 14 43° 96% - - 42° 46.1° 40.1° - - -
2/27 7:40pm 131 7 G 16 42° 96% - - 41° 46.1° 40.1° - - -
2/27 7:30pm 136 6 G 10 42° 96% - - 41° 46.1° 40.1° - - -
2/27 7:20pm 132 6 G 11 42° 95% - - 41° 46.1° 40.1° - - -
2/27 7:10pm 133 5 G 10 42° 95% - - 41° 46.1° 40.1° - - -
2/27 7:00pm 129 6 G 10 42° 95% - - 41° 46.1° 40.1° - - -
2/27 6:50pm 134 6 G 13 42° 95% - - 41° 46.1° 40.1° - - -
2/27 6:40pm 136 6 G 11 42° 94% - - 41° 46.1° 40.1° - - -
2/27 6:30pm 129 6 G 11 42° 94% - - 41° 46.1° 40.1° - - -
2/27 6:20pm 132 5 G 13 42° 94% - - 41° 46.1° 40.1° - - -
2/27 6:10pm 133 4 G 10 42° 94% - - 41° 46.1° 40.1° - - -
2/27 6:00pm 132 4 G 11 43° 94% - - 41° 46.1° 40.1° - - -
2/27 5:50pm 135 3 G 7 43° 93% - - 41° 46.1° 40.1° - - -
2/27 5:40pm 138 4 G 12 43° 92% - - 41° 46.1° 40.1° - - -
2/27 5:30pm 116 3 G 9 43° 92% - - 41° 46.1° 40.1° - - -
2/27 5:20pm 125 5 G 14 43° 94% - - 42° 46.1° 40.1° - - -
2/27 5:10pm 112 3 G 8 43° 94% - - 42° 46.1° 40.1° - - -
2/27 5:00pm 215 11 G 18 42° 100% - - 42° 45° 38.5° - - -
2/27 4:50pm 211 12 G 20 42° 100% - - 42° 45° 38.5° - - -
2/27 4:40pm 213 11 G 17 42° 100% - - 42° 45° 38.5° - - -
2/27 4:30pm 212 10 G 19 42° 100% - - 42° 45° 38.5° - - -
2/27 4:20pm 217 10 G 16 42° 100% - - 42° 45° 38.5° - - -
2/27 4:10pm 216 11 G 18 42° 100% - - 42° 45° 38.5° - - -
2/27 4:00pm 214 11 G 23 42° 100% - - 42° 45° 38.5° - - -
2/27 3:50pm 213 12 G 19 42° 100% - - 42° 45° 38.5° - - -
2/27 3:40pm 214 12 G 23 42° 100% - - 42° 45° 38.5° - - -
2/27 3:30pm 215 10 G 22 42° 100% - - 42° 45° 38.5° - - -
2/27 3:20pm 211 14 G 23 42° 100% - - 42° 45° 38.5° - - -
2/27 3:10pm 213 13 G 21 43° 100% - - 43° 45° 38.5° - - -
2/27 3:00pm 215 13 G 22 43° 100% - - 43° 45° 38.5° - - -
2/27 2:50pm 213 14 G 28 43° 100% - - 43° 45° 38.5° - - -
2/27 2:40pm 215 16 G 30 43° 100% - - 43° 45° 38.5° - - -
2/27 2:30pm 214 16 G 27 43° 100% - - 43° 45° 38.5° - - -
2/27 2:20pm 213 12 G 22 43° 100% - - 43° 45° 38.5° - - -
2/27 2:10pm 211 14 G 26 43° 100% - - 43° 45° 38.5° - - -
2/27 2:00pm 213 14 G 23 44° 100% - - 44° 45° 38.5° - - -
2/27 1:50pm 212 12 G 23 44° 100% - - 44° 45° 38.5° - - -
2/27 1:40pm 215 12 G 22 44° 100% - - 44° 45° 38.5° - - -
2/27 1:30pm 217 11 G 18 44° 100% - - 44° 45° 38.5° - - -
2/27 1:20pm 214 13 G 27 44° 100% - - 44° 45° 38.5° - - -
2/27 1:10pm 216 13 G 24 44° 100% - - 44° 45° 38.5° - - -
2/27 1:00pm 212 13 G 26 44° 100% - - 44° 45° 38.5° - - -
2/27 12:50pm 210 15 G 28 44° 100% - - 44° 45° 38.5° - - -
2/27 12:40pm 212 14 G 24 44° 100% - - 44° 45° 38.5° - - -
2/27 12:30pm 214 12 G 20 44° 100% - - 44° 45° 38.5° - - -
2/27 12:20pm 213 12 G 21 44° 100% - - 44° 45° 38.5° - - -
2/27 12:10pm 214 12 G 20 44° 100% - - 43° 45° 38.5° - - -
2/27 12:00pm 214 11 G 17 43° 100% - - 43° 45° 38.5° - - -
2/27 11:50am 214 13 G 23 43° 100% - - 43° 45° 38.5° - - -
2/27 11:40am 214 10 G 17 43° 100% - - 43° 45° 38.5° - - -
2/27 11:30am 212 11 G 19 43° 100% - - 43° 45° 38.5° - - -
2/27 11:20am 213 11 G 20 44° 100% - - 44° 45° 38.5° - - -
2/27 11:10am 213 10 G 18 44° 100% - - 44° 45° 38.5° - - -
2/27 11:00am 213 13 G 22 44° 100% - - 44° 45° 38.5° - - -
2/27 10:50am 216 14 G 24 44° 100% - - 44° 45° 38.5° - - -
2/27 10:40am 213 14 G 24 44° 100% - - 44° 45° 38.5° - - -
2/27 10:30am 215 14 G 23 44° 100% - - 44° 45° 38.5° - - -
2/27 10:20am 215 13 G 25 44° 100% - - 44° 45° 38.5° - - -
2/27 10:10am 215 10 G 17 44° 100% - - 44° 45° 38.5° - - -
2/27 10:00am 214 10 G 17 44° 100% - - 44° 45° 38.5° - - -
2/27 9:50am 215 8 G 16 44° 100% - - 44° 45° 38.5° - - -
2/27 9:40am 218 8 G 12 44° 100% - - 44° 45° 38.5° - - -
2/27 9:30am 216 7 G 12 44° 100% - - 44° 45° 38.5° - - -
2/27 9:20am 214 7 G 14 44° 100% - - 44° 45° 38.5° - - -
2/27 9:10am 217 5 G 9 44° 100% - - 44° 45° 38.5° - - -
2/27 9:00am 217 8 G 17 44° 100% - - 44° 45° 38.5° - - -
2/27 8:50am 213 10 G 17 44° 100% - - 44° 45° 38.5° - - -
2/27 8:40am 217 11 G 19 44° 100% - - 44° 45° 38.5° - - -
2/27 8:30am 214 12 G 22 44° 100% - - 44° 45° 38.5° - - -
2/27 8:20am 214 11 G 18 44° 100% - - 44° 45° 38.5° - - -
2/27 8:10am 215 10 G 17 44° 100% - - 44° 45° 38.5° - - -
2/27 8:00am 213 9 G 18 44° 100% - - 44° 45° 38.5° - - -
2/27 7:50am 212 10 G 20 44° 100% - - 44° 45° 38.5° - - -
2/27 7:40am 212 10 G 19 44° 100% - - 44° 45° 38.5° - - -
2/27 7:30am 211 9 G 16 44° 100% - - 44° 45° 38.5° - - -
2/27 7:20am 215 11 G 19 44° 100% - - 44° 44.8° 38.5° - - -
2/27 7:10am 214 11 G 19 44° 100% - - 44° 44.7° 38.5° - - -
2/27 7:00am 212 10 G 17 44° 100% - - 44° 44.5° 38.5° - - -
2/27 6:50am 213 11 G 20 44° 100% - - 44° 44.5° 38.5° - - -
2/27 6:40am 214 10 G 22 44° 100% - - 44° 44.3° 38.5° - - -
2/27 6:30am 215 10 G 15 44° 100% - - 44° 44.3° 38.5° - - -
2/27 6:20am 216 11 G 16 44° 100% - - 44° 44.3° 38.5° - - -
2/27 6:10am 215 10 G 15 44° 100% - - 44° 44.3° 38.5° - - -
2/27 6:00am 216 10 G 16 44° 100% - - 44° 44.3° 38.5° - - -
2/27 5:50am 217 10 G 15 44° 100% - - 44° 44.3° 38.5° - - -
2/27 5:40am 215 11 G 18 44° 100% - - 44° 44.3° 38.5° - - -
2/27 5:30am 212 10 G 18 44° 100% - - 44° 44.2° 38.5° - - -
2/27 5:20am 212 12 G 22 44° 100% - - 44° 44.1° 38.5° - - -
2/27 5:10am 213 10 G 16 44° 100% - - 44° 44.1° 38.5° - - -
2/27 5:00am 210 11 G 17 44° 100% - - 44° 44° 38.5° - - -
2/27 4:50am 210 11 G 18 43° 100% - - 43° 44° 38.5° - - -
2/27 4:40am 214 10 G 16 43° 100% - - 43° 43.8° 38.5° - - -
2/27 4:30am 214 11 G 17 43° 100% - - 43° 43.6° 38.5° - - -
2/27 4:20am 212 10 G 16 43° 100% - - 43° 43.6° 38.5° - - -
2/27 4:10am 209 10 G 15 43° 100% - - 43° 43.5° 38.5° - - -
2/27 4:00am 217 9 G 14 43° 100% - - 43° 43.5° 38.5° - - -
2/27 3:50am 218 8 G 13 43° 100% - - 43° 43.1° 38.5° - - -
2/27 3:40am 216 9 G 13 43° 100% - - 42° 43.1° 38.5° - - -
2/27 3:30am 213 9 G 14 43° 100% - - 42° 43.1° 38.5° - - -
2/27 3:20am 211 10 G 18 43° 100% - - 43° 43.1° 38.5° - - -
2/27 3:10am 217 10 G 14 42° 100% - - 42° 43° 38.5° - - -
2/27 3:00am 213 10 G 15 42° 100% - - 42° 42.8° 38.5° - - -
2/27 2:50am 215 10 G 15 42° 100% - - 42° 42.6° 38.5° - - -
2/27 2:40am 214 9 G 15 42° 100% - - 42° 42.3° 38.5° - - -
2/27 2:30am 216 10 G 16 42° 100% - - 42° 42° 38.5° - - -
2/27 2:20am 215 10 G 17 41° 100% - - 41° 41.9° 38.5° - - -
2/27 2:10am 214 10 G 19 41° 100% - - 41° 41.9° 38.5° - - -
2/27 2:00am 214 11 G 17 41° 100% - - 41° 41.8° 38.5° - - -
2/27 1:50am 214 11 G 16 41° 100% - - 41° 41.6° 38.5° - - -
2/27 1:40am 213 10 G 15 41° 100% - - 41° 41.4° 38.5° - - -
2/27 1:30am 211 10 G 16 41° 100% - - 41° 41.2° 38.5° - - -
2/27 1:20am 211 10 G 18 41° 100% - - 41° 41.2° 38.5° - - -
2/27 1:10am 211 10 G 17 40° 100% - - 40° 40.9° 38.5° - - -
2/27 1:00am 211 9 G 14 40° 100% - - 40° 40.6° 38.5° - - -
2/27 12:50am 212 10 G 18 40° 100% - - 40° 40.4° 38.5° - - -
2/27 12:40am 213 9 G 16 40° 100% - - 40° 40.2° 38.5° - - -
2/27 12:30am 211 10 G 15 39° 100% - - 39° 40.1° 38.5° - - -
2/27 12:20am 216 10 G 16 39° 100% - - 39° 39.9° 38.5° - - -
2/27 12:10am 213 11 G 17 39° 99% - - 39° 39.7° 38.5° - - -
2/27 12:00am 211 10 G 15 38° 99% - - 38° 40.6° 33.3° - - -
2/26 11:50pm 210 10 G 14 37° 99% - - 37° 40.6° 33.3° - - -
2/26 11:40pm 210 9 G 15 37° 97% - - 36° 40.6° 33.3° - - -
2/26 11:30pm 210 9 G 15 37° 95% - - 35° 40.6° 33.3° - - -
2/26 11:20pm 212 11 G 18 37° 93% - - 35° 40.6° 33.3° - - -
2/26 11:10pm 213 11 G 17 36° 93% - - 34° 40.6° 33.3° - - -
2/26 11:00pm 213 10 G 16 35° 95% - - 34° 40.6° 33.3° - - -
2/26 10:50pm 211 9 G 15 35° 98% - - 35° 40.6° 33.3° - - -
2/26 10:40pm 211 10 G 17 36° 99% - - 36° 40.6° 33.3° - - -
2/26 10:30pm 213 11 G 16 36° 99% - - 36° 40.6° 33.3° - - -
2/26 10:20pm 216 10 G 18 36° 99% - - 36° 40.6° 33.3° - - -
2/26 10:10pm 216 10 G 17 36° 99% - - 36° 40.6° 33.3° - - -
2/26 10:00pm 214 10 G 17 36° 99% - - 35° 40.6° 33.3° - - -
2/26 9:50pm 214 8 G 13 36° 99% - - 35° 40.6° 33.3° - - -
2/26 9:40pm 215 10 G 16 36° 99% - - 35° 40.6° 33.3° - - -
2/26 9:30pm 216 10 G 17 36° 99% - - 35° 40.6° 33.3° - - -
2/26 9:20pm 215 9 G 16 36° 99% - - 36° 40.6° 33.3° - - -
2/26 9:10pm 213 9 G 15 36° 99% - - 36° 40.6° 33.3° - - -
2/26 9:00pm 214 10 G 17 36° 99% - - 36° 40.6° 33.3° - - -
2/26 8:50pm 215 9 G 18 36° 99% - - 36° 40.6° 33.3° - - -
2/26 8:40pm 213 9 G 16 36° 99% - - 36° 40.6° 33.3° - - -
2/26 8:30pm 208 9 G 17 36° 99% - - 36° 40.6° 33.3° - - -
2/26 8:20pm 212 10 G 16 36° 99% - - 36° 40.6° 33.3° - - -
2/26 8:10pm 217 11 G 20 36° 99% - - 36° 40.6° 33.3° - - -
2/26 8:00pm 215 9 G 17 36° 99% - - 36° 40.6° 33.3° - - -
2/26 7:50pm 214 9 G 17 36° 99% - - 36° 40.6° 33.3° - - -
2/26 7:40pm 215 9 G 18 36° 99% - - 36° 40.6° 33.3° - - -
2/26 7:30pm 211 8 G 15 36° 99% - - 36° 40.6° 33.3° - - -
2/26 7:20pm 218 9 G 16 36° 100% - - 36° 40.6° 33.3° - - -
2/26 7:10pm 214 9 G 15 37° 100% - - 37° 40.6° 33.3° - - -
2/26 7:00pm 216 9 G 16 37° 100% - - 36° 40.6° 33.3° - - -
2/26 6:50pm 214 11 G 17 37° 100% - - 36° 40.6° 33.3° - - -
2/26 6:40pm 217 9 G 20 37° 100% - - 37° 40.6° 33.3° - - -
2/26 6:30pm 219 8 G 16 38° 100% - - 37° 40.6° 33.3° - - -
2/26 6:20pm 221 7 G 14 37° 99% - - 37° 40.6° 33.3° - - -
2/26 6:10pm 213 8 G 15 37° 99% - - 37° 40.6° 33.3° - - -
2/26 6:00pm 212 9 G 19 37° 99% - - 37° 40.6° 33.3° - - -
2/26 5:50pm 214 8 G 16 38° 99% - - 37° 40.6° 33.3° - - -
2/26 5:40pm 214 8 G 14 38° 99% - - 37° 40.6° 33.3° - - -
2/26 5:30pm 214 9 G 15 38° 99% - - 37° 40.6° 33.3° - - -
2/26 5:20pm 217 10 G 19 38° 99% - - 38° 40.6° 33.3° - - -
2/26 5:10pm 218 10 G 20 38° 99% - - 38° 40.6° 33.3° - - -
2/26 5:00pm 215 9 G 17 38° 98% - - 38° 40.6° 33.3° - - -